Time;durP1;ratioP1;P1;durP2;ratioP2;P2;SDS_P1;SDS_P2;PMS_P1;PMS_P2;Temp;Humidity;BMP_temperature;BMP_pressure;BME280_temperature;BME280_humidity;BME280_pressure;Samples;Min_cycle;Max_cycle;Signal;HPM_P1;HPM_P2
2021/09/05 00:01:30;;;;;;;0.88;0.88;;;14.70;99.90;;;;;;5090929;28;20182;-73
2021/09/05 00:04:01;;;;;;;0.43;0.43;;;14.70;99.90;;;;;;5090886;28;20167;-73
2021/09/05 00:06:28;;;;;;;0.35;0.35;;;14.80;99.90;;;;;;5109164;28;20183;-73
2021/09/05 00:08:54;;;;;;;0.60;0.60;;;14.70;99.90;;;;;;5090853;28;20732;-73
2021/09/05 00:11:20;;;;;;;1.70;1.60;;;14.70;99.90;;;;;;5090819;28;20178;-73
2021/09/05 00:13:46;;;;;;;0.80;0.80;;;14.60;99.90;;;;;;5090760;28;20222;-73
2021/09/05 00:16:12;;;;;;;2.13;0.75;;;14.50;99.90;;;;;;5090693;28;20174;-73
2021/09/05 00:18:37;;;;;;;0.60;0.60;;;14.50;99.90;;;;;;5108899;28;20254;-73
2021/09/05 00:21:03;;;;;;;0.65;0.65;;;14.60;99.90;;;;;;5090719;28;20238;-73
2021/09/05 00:23:29;;;;;;;0.60;0.60;;;14.40;99.90;;;;;;5108948;28;20164;-73
2021/09/05 00:25:55;;;;;;;0.63;0.63;;;14.30;99.90;;;;;;5108837;28;20871;-72
2021/09/05 00:28:21;;;;;;;1.55;1.27;;;14.20;99.90;;;;;;5090392;28;20163;-72
2021/09/05 00:30:47;;;;;;;3.88;1.95;;;14.20;99.90;;;;;;5108750;28;20155;-73
2021/09/05 00:33:13;;;;;;;4.13;0.70;;;14.20;99.90;;;;;;5108656;28;20155;-72
2021/09/05 00:35:39;;;;;;;0.38;0.38;;;14.10;99.90;;;;;;5108842;28;20159;-73
2021/09/05 00:38:04;;;;;;;0.70;0.63;;;14.10;99.90;;;;;;5108687;28;20156;-73
2021/09/05 00:40:30;;;;;;;0.40;0.40;;;14.10;99.90;;;;;;5108454;28;20196;-74
2021/09/05 00:42:56;;;;;;;0.40;0.40;;;14.20;99.90;;;;;;5090654;28;20244;-73
2021/09/05 00:45:22;;;;;;;1.25;1.08;;;14.10;99.90;;;;;;5090327;28;20190;-74
2021/09/05 00:47:48;;;;;;;0.73;0.73;;;14.00;99.90;;;;;;5080080;28;20194;-74
2021/09/05 00:50:14;;;;;;;0.60;0.60;;;13.90;99.90;;;;;;5070061;28;20231;-75
2021/09/05 00:52:41;;;;;;;0.55;0.55;;;13.90;99.90;;;;;;5073114;28;20235;-74
2021/09/05 00:55:08;;;;;;;0.25;0.25;;;13.80;99.90;;;;;;5098633;28;20166;-73
2021/09/05 00:57:35;;;;;;;0.10;0.10;;;13.80;99.90;;;;;;5110657;28;20206;-74
2021/09/05 01:00:01;;;;;;;0.32;0.32;;;13.80;99.90;;;;;;5110645;28;20227;-74
2021/09/05 01:02:26;;;;;;;0.20;0.20;;;13.70;99.90;;;;;;5128568;28;20647;-74
2021/09/05 01:04:52;;;;;;;0.22;0.17;;;13.70;99.90;;;;;;5128378;28;20154;-74
2021/09/05 01:07:18;;;;;;;0.25;0.25;;;13.60;99.90;;;;;;5128838;28;20671;-74
2021/09/05 01:09:47;;;;;;;0.50;0.50;;;13.60;99.90;;;;;;5128762;28;20210;-74
2021/09/05 01:12:13;;;;;;;0.52;0.52;;;13.50;99.90;;;;;;5132634;28;20174;-75
2021/09/05 01:14:39;;;;;;;0.32;0.32;;;13.40;99.90;;;;;;5114513;28;20167;-74
2021/09/05 01:17:06;;;;;;;0.10;0.10;;;13.50;99.90;;;;;;5114566;28;20167;-75
2021/09/05 01:19:32;;;;;;;0.50;0.50;;;13.60;99.90;;;;;;5114514;28;20229;-74
2021/09/05 01:22:01;;;;;;;0.30;0.30;;;13.50;99.90;;;;;;5114496;28;20178;-75
2021/09/05 01:24:27;;;;;;;1.20;1.08;;;13.50;99.90;;;;;;5114527;28;20178;-74
2021/09/05 01:26:57;;;;;;;0.40;0.40;;;13.50;99.90;;;;;;5114303;28;20190;-74
2021/09/05 01:29:23;;;;;;;0.15;0.15;;;13.40;99.90;;;;;;5132660;28;20690;-75
2021/09/05 01:31:52;;;;;;;1.27;1.27;;;13.30;99.90;;;;;;5132444;28;20159;-75
2021/09/05 01:34:20;;;;;;;0.32;0.32;;;13.30;99.90;;;;;;5113508;28;20175;-75
2021/09/05 01:36:48;;;;;;;0.35;0.35;;;13.20;99.90;;;;;;5132583;28;20202;-74
2021/09/05 01:39:15;;;;;;;1.65;0.93;;;13.20;99.90;;;;;;5132490;28;20186;-75
2021/09/05 01:41:43;;;;;;;0.95;0.65;;;13.10;99.90;;;;;;5114098;28;20167;-74
2021/09/05 01:44:14;;;;;;;0.22;0.22;;;13.00;99.90;;;;;;5114009;28;20201;-74
2021/09/05 01:46:40;;;;;;;0.38;0.38;;;13.00;99.90;;;;;;5131452;28;20183;-75
2021/09/05 01:49:07;;;;;;;0.35;0.35;;;13.00;99.90;;;;;;5093477;28;20213;-75
2021/09/05 01:51:33;;;;;;;1.38;1.15;;;12.90;99.90;;;;;;5093352;28;20164;-74
2021/09/05 01:53:59;;;;;;;3.95;2.03;;;12.80;99.90;;;;;;5079373;28;20639;-74
2021/09/05 01:56:28;;;;;;;0.30;0.30;;;13.00;99.90;;;;;;5092313;28;20163;-74
2021/09/05 01:58:54;;;;;;;2.55;1.73;;;12.90;99.90;;;;;;5111677;28;20190;-75
2021/09/05 02:01:20;;;;;;;1.63;1.52;;;12.90;99.90;;;;;;5093446;28;20193;-74
2021/09/05 02:03:47;;;;;;;2.42;1.33;;;12.80;99.90;;;;;;5111598;28;20164;-74
2021/09/05 02:06:13;;;;;;;1.60;1.40;;;12.70;99.90;;;;;;5093324;28;20193;-74
2021/09/05 02:08:39;;;;;;;2.67;1.80;;;12.60;99.90;;;;;;5111573;28;20202;-74
2021/09/05 02:11:05;;;;;;;0.93;0.93;;;12.60;99.90;;;;;;5111483;28;20155;-74
2021/09/05 02:13:32;;;;;;;0.73;0.70;;;12.70;99.90;;;;;;5109637;28;20228;-74
2021/09/05 02:15:58;;;;;;;3.92;1.63;;;12.70;99.90;;;;;;5073092;28;20225;-74
2021/09/05 02:18:24;;;;;;;0.65;0.65;;;12.80;99.90;;;;;;5072833;28;20168;-74
2021/09/05 02:20:49;;;;;;;0.50;0.50;;;12.80;99.90;;;;;;5090962;28;20160;-74
2021/09/05 02:23:15;;;;;;;0.50;0.50;;;12.80;99.90;;;;;;5071956;28;20172;-74
2021/09/05 02:25:41;;;;;;;0.68;0.65;;;12.80;99.90;;;;;;5090639;28;20251;-74
2021/09/05 02:28:07;;;;;;;1.00;0.88;;;12.80;99.90;;;;;;5090481;28;20152;-74
2021/09/05 02:30:34;;;;;;;0.17;0.17;;;12.70;99.90;;;;;;5090424;28;20202;-74
2021/09/05 02:33:02;;;;;;;2.63;2.33;;;12.60;99.90;;;;;;5072583;28;20180;-74
2021/09/05 02:35:28;;;;;;;0.30;0.30;;;12.60;99.90;;;;;;5072358;28;20199;-74
2021/09/05 02:37:54;;;;;;;0.88;0.88;;;12.50;99.90;;;;;;5072482;28;20164;-74
2021/09/05 02:40:20;;;;;;;1.15;1.05;;;12.50;99.90;;;;;;5090483;28;20206;-74
2021/09/05 02:42:46;;;;;;;0.98;0.60;;;12.50;99.90;;;;;;5090338;28;20528;-74
2021/09/05 02:45:11;;;;;;;0.65;0.65;;;12.40;99.90;;;;;;5090000;28;20655;-74
2021/09/05 02:47:37;;;;;;;0.73;0.73;;;12.40;99.90;;;;;;5072109;28;20311;-76
2021/09/05 02:50:04;;;;;;;0.38;0.13;;;12.40;99.90;;;;;;5071820;28;20164;-73
2021/09/05 02:52:30;;;;;;;0.65;0.63;;;12.40;99.90;;;;;;5073355;28;20156;-73
2021/09/05 02:54:56;;;;;;;4.32;1.38;;;12.40;99.90;;;;;;5092092;28;20206;-73
2021/09/05 02:57:22;;;;;;;0.35;0.35;;;12.30;99.90;;;;;;5092278;28;20225;-75
2021/09/05 02:59:48;;;;;;;0.30;0.30;;;12.30;99.90;;;;;;5110449;28;20160;-74
2021/09/05 03:02:13;;;;;;;0.28;0.28;;;12.30;99.90;;;;;;5109994;28;20170;-75
2021/09/05 03:04:39;;;;;;;0.90;0.90;;;12.30;99.90;;;;;;5091929;28;20171;-74
2021/09/05 03:07:05;;;;;;;0.80;0.80;;;12.30;99.90;;;;;;5110064;28;20203;-74
2021/09/05 03:09:31;;;;;;;2.70;1.73;;;12.20;99.90;;;;;;5091957;28;20234;-75
2021/09/05 03:11:57;;;;;;;6.22;1.65;;;12.20;99.90;;;;;;5109959;28;20181;-75
2021/09/05 03:14:22;;;;;;;0.38;0.38;;;12.10;99.90;;;;;;5110001;28;20242;-74
2021/09/05 03:16:48;;;;;;;0.77;0.57;;;12.20;99.90;;;;;;5110140;28;20265;-75
2021/09/05 03:19:14;;;;;;;0.90;0.90;;;12.20;99.90;;;;;;5109948;28;20269;-74
2021/09/05 03:21:41;;;;;;;1.15;1.02;;;12.20;99.90;;;;;;5091623;28;20205;-74
2021/09/05 03:24:08;;;;;;;0.05;0.05;;;12.20;99.90;;;;;;5109833;28;20621;-73
2021/09/05 03:26:35;;;;;;;0.57;0.50;;;12.30;99.90;;;;;;5091563;28;20195;-73
2021/09/05 03:29:02;;;;;;;0.30;0.30;;;12.30;99.90;;;;;;5091646;28;20651;-73
2021/09/05 03:31:28;;;;;;;0.57;0.57;;;12.30;99.90;;;;;;5091549;28;20190;-74
2021/09/05 03:33:54;;;;;;;1.45;0.70;;;12.30;99.90;;;;;;5109245;28;20155;-72
2021/09/05 03:36:20;;;;;;;10.85;2.25;;;12.40;99.90;;;;;;5109406;28;20247;-73
2021/09/05 03:38:46;;;;;;;0.32;0.32;;;12.40;99.90;;;;;;5091161;28;20199;-73
2021/09/05 03:41:12;;;;;;;0.32;0.32;;;12.30;99.90;;;;;;5091291;28;20190;-73
2021/09/05 03:43:38;;;;;;;0.10;0.10;;;12.20;99.90;;;;;;5091408;28;20197;-74
2021/09/05 03:46:04;;;;;;;5.40;1.08;;;12.10;99.90;;;;;;5090929;28;20195;-76
2021/09/05 03:48:30;;;;;;;1.30;1.30;;;12.10;99.90;;;;;;5108743;28;20195;-74
2021/09/05 03:50:56;;;;;;;1.48;1.38;;;12.10;99.90;;;;;;5090909;28;20163;-74
2021/09/05 03:53:22;;;;;;;0.65;0.65;;;12.20;99.90;;;;;;5108818;28;20207;-74
2021/09/05 03:55:48;;;;;;;0.50;0.50;;;12.20;99.90;;;;;;5109041;28;20210;-74
2021/09/05 03:58:14;;;;;;;0.57;0.57;;;12.20;99.90;;;;;;5109056;28;20230;-73
2021/09/05 04:00:40;;;;;;;1.08;0.98;;;12.10;99.90;;;;;;5109161;28;20151;-72
2021/09/05 04:03:05;;;;;;;0.35;0.35;;;12.10;99.90;;;;;;5090908;28;20163;-73
2021/09/05 04:05:31;;;;;;;0.70;0.70;;;12.00;99.90;;;;;;5108930;28;20191;-73
2021/09/05 04:08:16;;;;;;;0.95;0.95;;;11.90;99.90;;;;;;5108847;28;20199;-73
2021/09/05 04:10:43;;;;;;;0.43;0.43;;;11.90;99.90;;;;;;5091102;28;20170;-73
2021/09/05 04:13:14;;;;;;;1.45;1.42;;;11.80;99.90;;;;;;5109479;28;20166;-75
2021/09/05 04:15:41;;;;;;;0.20;0.20;;;11.80;99.90;;;;;;5109247;28;20155;-73
2021/09/05 04:18:09;;;;;;;1.85;1.75;;;11.80;99.90;;;;;;5090706;28;20699;-73
2021/09/05 04:20:35;;;;;;;1.00;1.00;;;11.80;99.90;;;;;;5109143;28;20246;-74
2021/09/05 04:23:01;;;;;;;1.33;1.23;;;11.80;99.90;;;;;;5109305;28;20171;-74
2021/09/05 04:25:26;;;;;;;0.73;0.63;;;11.80;99.90;;;;;;5091297;28;20605;-74
2021/09/05 04:27:52;;;;;;;0.65;0.65;;;11.80;99.90;;;;;;5109000;28;20213;-74
2021/09/05 04:30:18;;;;;;;0.10;0.10;;;11.90;99.90;;;;;;5109188;28;20159;-74
2021/09/05 04:32:44;;;;;;;5.38;1.20;;;11.90;99.90;;;;;;5090749;28;20159;-74
2021/09/05 04:35:10;;;;;;;0.75;0.75;;;12.00;99.90;;;;;;5108816;28;20156;-74
2021/09/05 04:37:36;;;;;;;0.77;0.68;;;12.00;99.90;;;;;;5108724;28;20236;-73
2021/09/05 04:40:04;;;;;;;1.42;1.33;;;12.10;99.90;;;;;;5108483;28;20565;-74
2021/09/05 04:42:31;;;;;;;0.60;0.50;;;12.10;99.90;;;;;;5107854;28;20588;-75
2021/09/05 04:44:57;;;;;;;0.93;0.77;;;12.20;99.90;;;;;;5107815;28;20175;-75
2021/09/05 04:47:23;;;;;;;0.70;0.35;;;12.10;99.90;;;;;;5089617;28;20268;-74
2021/09/05 04:49:48;;;;;;;5.53;0.52;;;12.10;99.90;;;;;;5108392;28;20530;-74
2021/09/05 04:52:15;;;;;;;0.70;0.70;;;12.10;99.90;;;;;;5108430;28;20164;-73
2021/09/05 04:54:40;;;;;;;0.10;0.10;;;12.20;99.90;;;;;;5108117;28;20705;-74
2021/09/05 04:57:06;;;;;;;0.32;0.32;;;12.20;99.90;;;;;;5089602;28;20199;-74
2021/09/05 04:59:32;;;;;;;0.32;0.32;;;12.30;99.90;;;;;;5089950;28;20228;-74
2021/09/05 05:01:58;;;;;;;1.00;0.70;;;12.50;99.90;;;;;;5108154;28;20565;-74
2021/09/05 05:04:24;;;;;;;0.57;0.57;;;12.60;99.90;;;;;;5108115;28;20227;-74
2021/09/05 05:06:50;;;;;;;0.50;0.50;;;12.80;99.90;;;;;;5107867;28;20601;-74
2021/09/05 05:09:16;;;;;;;1.35;0.80;;;12.90;99.90;;;;;;5089927;28;20220;-74
2021/09/05 05:11:44;;;;;;;2.40;1.10;;;12.90;99.90;;;;;;5089765;28;20243;-74
2021/09/05 05:14:13;;;;;;;1.75;0.30;;;12.90;99.90;;;;;;5089828;28;20168;-74
2021/09/05 05:16:39;;;;;;;2.13;0.95;;;12.80;99.90;;;;;;5108110;28;20167;-74
2021/09/05 05:19:05;;;;;;;0.65;0.65;;;12.80;99.90;;;;;;5108283;28;20155;-74
2021/09/05 05:21:31;;;;;;;1.38;0.98;;;12.70;99.90;;;;;;5108125;28;20623;-74
2021/09/05 05:23:59;;;;;;;0.75;0.75;;;12.70;99.90;;;;;;5089858;28;20205;-74
2021/09/05 05:26:28;;;;;;;0.50;0.50;;;12.80;99.90;;;;;;5107950;28;20191;-74
2021/09/05 05:28:55;;;;;;;2.22;1.20;;;12.90;99.90;;;;;;5089703;28;20198;-75
2021/09/05 05:31:22;;;;;;;2.83;1.17;;;13.20;99.90;;;;;;5108362;28;20156;-75
2021/09/05 05:33:48;;;;;;;0.57;0.57;;;13.60;99.90;;;;;;5089680;28;20198;-75
2021/09/05 05:36:14;;;;;;;2.08;1.95;;;13.80;99.90;;;;;;5107867;28;20164;-75
2021/09/05 05:38:41;;;;;;;1.83;1.73;;;14.10;99.90;;;;;;5089292;28;20575;-75
2021/09/05 05:41:07;;;;;;;1.45;1.27;;;14.30;99.90;;;;;;5089360;28;20266;-75
2021/09/05 05:43:36;;;;;;;0.68;0.68;;;14.70;99.90;;;;;;5108014;28;20160;-75
2021/09/05 05:46:03;;;;;;;0.52;0.52;;;14.90;99.90;;;;;;5107644;28;20247;-75
2021/09/05 05:48:29;;;;;;;2.90;2.47;;;14.90;99.90;;;;;;5107685;28;20187;-75
2021/09/05 05:50:57;;;;;;;0.88;0.88;;;15.30;99.90;;;;;;5089307;28;20167;-75
2021/09/05 05:53:23;;;;;;;1.33;1.30;;;15.60;99.90;;;;;;5089235;28;20222;-74
2021/09/05 05:55:49;;;;;;;0.75;0.75;;;16.20;99.90;;;;;;5107676;28;20221;-75
2021/09/05 05:58:15;;;;;;;0.70;0.70;;;17.50;99.90;;;;;;5109644;28;20251;-73
2021/09/05 06:00:42;;;;;;;4.57;1.45;;;18.10;99.90;;;;;;5111403;28;20152;-73
2021/09/05 06:03:09;;;;;;;0.40;0.40;;;18.40;99.90;;;;;;5092914;28;20187;-75
2021/09/05 06:05:36;;;;;;;1.15;1.15;;;18.60;99.90;;;;;;5092965;28;20191;-75
2021/09/05 06:08:03;;;;;;;1.23;0.85;;;17.70;99.90;;;;;;5092801;28;20222;-75
2021/09/05 06:10:30;;;;;;;0.60;0.60;;;17.80;99.90;;;;;;5111286;28;20182;-74
2021/09/05 06:12:56;;;;;;;1.00;0.50;;;17.90;99.90;;;;;;5111292;28;20155;-75
2021/09/05 06:15:22;;;;;;;1.75;0.98;;;18.20;99.90;;;;;;5092939;28;20163;-75
2021/09/05 06:17:48;;;;;;;0.38;0.38;;;18.90;99.90;;;;;;5092866;28;20218;-75
2021/09/05 06:20:14;;;;;;;0.40;0.40;;;19.10;99.90;;;;;;5092835;28;20163;-75
2021/09/05 06:22:40;;;;;;;0.90;0.90;;;18.70;99.90;;;;;;5110942;28;20155;-77
2021/09/05 06:25:06;;;;;;;1.63;1.52;;;18.80;99.90;;;;;;5092734;28;20229;-76
2021/09/05 06:27:32;;;;;;;0.63;0.60;;;18.90;99.90;;;;;;5092356;28;20203;-76
2021/09/05 06:30:00;;;;;;;2.15;1.98;;;19.00;99.90;;;;;;5110879;28;20194;-76
2021/09/05 06:32:27;;;;;;;0.80;0.80;;;18.90;99.90;;;;;;5110633;28;20194;-76
2021/09/05 06:34:54;;;;;;;0.45;0.45;;;18.80;99.90;;;;;;5110749;28;20147;-75
2021/09/05 06:37:20;;;;;;;0.68;0.68;;;18.30;99.90;;;;;;5110988;28;20198;-76
2021/09/05 06:39:46;;;;;;;0.77;0.77;;;18.40;99.90;;;;;;5092618;28;20167;-76
2021/09/05 06:42:12;;;;;;;0.75;0.60;;;20.10;99.90;;;;;;5110595;28;20194;-76
2021/09/05 06:44:38;;;;;;;1.02;1.02;;;20.70;99.90;;;;;;5110254;28;20165;-76
2021/09/05 06:47:05;;;;;;;0.22;0.22;;;21.10;99.90;;;;;;5110259;28;20199;-76
2021/09/05 06:49:31;;;;;;;0.73;0.73;;;21.70;99.90;;;;;;5092183;28;20193;-76
2021/09/05 06:51:57;;;;;;;1.08;0.77;;;21.80;99.90;;;;;;5110616;28;20519;-76
2021/09/05 06:54:23;;;;;;;0.95;0.95;;;21.90;99.90;;;;;;5110347;28;20272;-76
2021/09/05 06:56:49;;;;;;;0.93;0.80;;;22.00;99.90;;;;;;5092059;28;20326;-76
2021/09/05 06:59:15;;;;;;;3.35;0.82;;;22.70;99.90;;;;;;5092035;28;20181;-74
2021/09/05 07:01:42;;;;;;;1.05;0.95;;;23.30;99.90;;;;;;5092029;28;20198;-74
2021/09/05 07:04:08;;;;;;;1.55;0.90;;;24.20;99.90;;;;;;5091882;28;20167;-75
2021/09/05 07:06:34;;;;;;;1.73;0.80;;;23.50;99.90;;;;;;5109911;28;20198;-75
2021/09/05 07:09:00;;;;;;;0.75;0.75;;;23.10;99.90;;;;;;5109724;28;20165;-74
2021/09/05 07:11:26;;;;;;;1.15;1.05;;;23.20;99.90;;;;;;5091757;28;20166;-75
2021/09/05 07:13:52;;;;;;;1.48;1.38;;;23.30;99.90;;;;;;5090305;28;20225;-74
2021/09/05 07:16:18;;;;;;;1.20;1.10;;;24.30;99.90;;;;;;5109883;28;20163;-73
2021/09/05 07:18:44;;;;;;;0.68;0.68;;;24.20;99.90;;;;;;5109252;28;20285;-74
2021/09/05 07:21:10;;;;;;;0.90;0.88;;;24.10;99.90;;;;;;5091556;28;20193;-73
2021/09/05 07:23:36;;;;;;;1.52;1.42;;;24.60;99.90;;;;;;5109021;28;20166;-73
2021/09/05 07:26:02;;;;;;;2.15;1.95;;;24.20;99.90;;;;;;5108617;28;20186;-72
2021/09/05 07:28:35;;;;;;;0.73;0.73;;;24.40;99.90;;;;;;5109556;28;20169;-73
2021/09/05 07:31:01;;;;;;;1.15;1.02;;;24.80;99.90;;;;;;5112258;28;20204;-73
2021/09/05 07:33:27;;;;;;;1.05;0.88;;;24.00;99.90;;;;;;5111881;28;20167;-75
2021/09/05 07:35:53;;;;;;;1.67;1.58;;;24.30;99.90;;;;;;5130090;28;20188;-74
2021/09/05 07:38:19;;;;;;;1.13;1.02;;;24.80;99.90;;;;;;5129946;28;20224;-74
2021/09/05 07:40:46;;;;;;;1.73;0.82;;;24.60;99.90;;;;;;5130001;28;20155;-74
2021/09/05 07:43:12;;;;;;;1.20;0.52;;;24.10;99.90;;;;;;5129777;28;20153;-74
2021/09/05 07:45:38;;;;;;;4.80;1.83;;;23.90;99.90;;;;;;5129762;28;20647;-73
2021/09/05 07:48:04;;;;;;;0.55;0.38;;;24.00;99.90;;;;;;5129433;28;20197;-75
2021/09/05 07:50:30;;;;;;;0.73;0.73;;;24.00;99.90;;;;;;5110931;28;20177;-74
2021/09/05 07:52:55;;;;;;;0.40;0.40;;;24.40;99.90;;;;;;5129295;28;20205;-75
2021/09/05 07:55:21;;;;;;;1.77;1.20;;;24.30;99.90;;;;;;5129629;28;20169;-71
2021/09/05 07:57:47;;;;;;;0.93;0.52;;;24.20;99.90;;;;;;5097255;28;20648;-75
2021/09/05 08:00:13;;;;;;;1.58;0.77;;;24.80;99.90;;;;;;5111311;28;20190;-72
2021/09/05 08:02:40;;;;;;;0.73;0.73;;;24.70;99.90;;;;;;5116191;28;20196;-72
2021/09/05 08:05:08;;;;;;;1.33;1.23;;;25.50;99.90;;;;;;5097797;28;20230;-73
2021/09/05 08:07:34;;;;;;;0.47;0.47;;;25.80;99.90;;;;;;5091780;28;20206;-73
2021/09/05 08:10:01;;;;;;;0.75;0.63;;;25.60;99.90;;;;;;5108919;28;20206;-73
2021/09/05 08:12:27;;;;;;;0.77;0.50;;;25.20;99.90;;;;;;5109027;28;20171;-72
2021/09/05 08:14:52;;;;;;;1.17;0.65;;;25.60;99.90;;;;;;5089287;28;20186;-73
2021/09/05 08:17:18;;;;;;;0.75;0.75;;;25.70;99.90;;;;;;5089305;28;20639;-72
2021/09/05 08:19:46;;;;;;;0.70;0.70;;;26.10;99.90;;;;;;5107166;28;20214;-72
2021/09/05 08:22:12;;;;;;;0.82;0.82;;;26.30;99.90;;;;;;5107776;28;20159;-72
2021/09/05 08:24:38;;;;;;;0.85;0.85;;;26.20;99.90;;;;;;5108610;28;20192;-72
2021/09/05 08:27:05;;;;;;;5.50;1.25;;;25.40;99.90;;;;;;5090756;28;20313;-73
2021/09/05 08:29:31;;;;;;;1.77;0.85;;;25.30;99.90;;;;;;5108568;28;20245;-72
2021/09/05 08:31:56;;;;;;;0.30;0.30;;;25.70;99.90;;;;;;5090038;28;20179;-72
2021/09/05 08:34:22;;;;;;;0.93;0.60;;;25.80;99.90;;;;;;5090169;28;20697;-73
2021/09/05 08:36:48;;;;;;;2.10;0.88;;;26.90;99.90;;;;;;5108134;28;20190;-73
2021/09/05 08:39:14;;;;;;;0.45;0.45;;;27.00;99.90;;;;;;5108132;28;20163;-73
2021/09/05 08:41:40;;;;;;;1.27;0.85;;;26.20;99.90;;;;;;5086558;28;20185;-74
2021/09/05 08:44:06;;;;;;;1.48;0.88;;;26.30;99.90;;;;;;5089148;28;20174;-74
2021/09/05 08:46:32;;;;;;;0.90;0.90;;;26.50;99.90;;;;;;5089650;28;20212;-73
2021/09/05 08:49:02;;;;;;;1.38;0.82;;;27.10;99.90;;;;;;5108050;28;20155;-72
2021/09/05 08:51:28;;;;;;;0.32;0.32;;;26.40;99.90;;;;;;5107737;28;20151;-74
2021/09/05 08:53:55;;;;;;;0.47;0.32;;;25.20;99.90;;;;;;5108193;28;20217;-74
2021/09/05 08:56:22;;;;;;;2.08;0.98;;;24.50;99.90;;;;;;5107500;28;20185;-73
2021/09/05 08:58:48;;;;;;;0.40;0.40;;;25.40;99.90;;;;;;5089982;28;20186;-74
2021/09/05 09:01:26;;;;;;;0.60;0.60;;;26.40;99.90;;;;;;5107455;28;20186;-73
2021/09/05 09:04:06;;;;;;;1.10;0.57;;;26.80;99.90;;;;;;5089398;28;20186;-73
2021/09/05 09:06:38;;;;;;;0.60;0.35;;;27.70;99.90;;;;;;5107656;28;20202;-73
2021/09/05 09:09:05;;;;;;;0.95;0.90;;;27.80;99.90;;;;;;5101300;28;20278;-73
2021/09/05 09:11:57;;;;;;;0.60;0.60;;;27.20;99.90;;;;;;5105592;28;20205;-72
2021/09/05 09:14:37;;;;;;;0.57;0.52;;;27.10;99.90;;;;;;5119041;28;20580;-72
2021/09/05 09:17:03;;;;;;;1.20;1.15;;;27.30;99.90;;;;;;5109130;28;20177;-72
2021/09/05 09:19:29;;;;;;;0.55;0.55;;;26.90;99.90;;;;;;5128577;28;20199;-72
2021/09/05 09:21:56;;;;;;;0.50;0.50;;;26.40;99.90;;;;;;5110089;28;20727;-72
2021/09/05 09:24:23;;;;;;;0.68;0.45;;;26.60;99.90;;;;;;5110169;28;20178;-71
2021/09/05 09:27:03;;;;;;;3.33;0.80;;;26.40;99.90;;;;;;5127993;28;20189;-73
2021/09/05 09:29:32;;;;;;;0.45;0.45;;;26.50;99.90;;;;;;5128796;28;20748;-73
2021/09/05 09:32:06;;;;;;;0.38;0.38;;;26.50;99.90;;;;;;5130282;28;20186;-73
2021/09/05 09:34:46;;;;;;;1.10;0.70;;;26.10;99.90;;;;;;5106583;28;20190;-74
2021/09/05 09:37:23;;;;;;;0.93;0.68;;;25.60;99.90;;;;;;5107255;28;20170;-72
2021/09/05 09:39:51;;;;;;;0.35;0.25;;;25.70;99.90;;;;;;5089411;28;20268;-72
2021/09/05 09:42:31;;;;;;;0.47;0.47;;;25.90;99.90;;;;;;5110665;28;20163;-72
2021/09/05 09:44:57;;;;;;;1.25;0.65;;;25.80;99.90;;;;;;5110108;28;20191;-72
2021/09/05 09:47:23;;;;;;;0.32;0.30;;;25.20;99.90;;;;;;5094165;28;20203;-72
2021/09/05 09:49:50;;;;;;;1.85;1.15;;;25.80;99.90;;;;;;5117020;28;20209;-72
2021/09/05 09:52:17;;;;;;;1.75;0.50;;;26.70;99.90;;;;;;5130710;28;20177;-72
2021/09/05 09:54:45;;;;;;;0.80;0.70;;;27.00;99.90;;;;;;5113752;28;20215;-73
2021/09/05 09:57:11;;;;;;;0.43;0.43;;;26.70;99.90;;;;;;5089938;28;20194;-72
2021/09/05 09:59:38;;;;;;;1.05;1.00;;;27.20;99.90;;;;;;5110699;28;20195;-72
2021/09/05 10:02:05;;;;;;;1.02;1.02;;;27.00;99.90;;;;;;5111571;28;20276;-72
2021/09/05 10:04:31;;;;;;;1.05;0.95;;;26.50;99.90;;;;;;5111547;28;20262;-72
2021/09/05 10:06:58;;;;;;;0.63;0.63;;;27.00;99.90;;;;;;5115755;28;20281;-73
2021/09/05 10:09:25;;;;;;;0.55;0.55;;;28.10;99.90;;;;;;5118057;28;20186;-73
2021/09/05 10:11:52;;;;;;;11.63;0.90;;;26.90;99.90;;;;;;5118643;28;20182;-72
2021/09/05 10:14:20;;;;;;;0.17;0.17;;;27.80;99.90;;;;;;5092237;28;20204;-72
2021/09/05 10:16:47;;;;;;;0.82;0.82;;;27.90;99.30;;;;;;5093012;28;20190;-72
2021/09/05 10:19:13;;;;;;;0.90;0.52;;;28.00;99.90;;;;;;5092381;28;20333;-73
2021/09/05 10:21:40;;;;;;;1.15;0.93;;;28.60;99.90;;;;;;5116814;28;20174;-74
2021/09/05 10:24:14;;;;;;;0.63;0.60;;;28.40;99.60;;;;;;5109574;28;20226;-74
2021/09/05 10:27:07;;;;;;;0.28;0.28;;;28.00;99.80;;;;;;5110900;28;20213;-74
2021/09/05 10:29:32;;;;;;;1.67;1.33;;;27.90;99.00;;;;;;5127324;28;20804;-73
2021/09/05 10:31:59;;;;;;;0.63;0.63;;;28.00;99.90;;;;;;5112842;28;20162;-72
2021/09/05 10:34:32;;;;;;;1.08;0.52;;;27.50;99.90;;;;;;5131104;28;20155;-73
2021/09/05 10:37:10;;;;;;;1.05;0.82;;;27.60;99.90;;;;;;5107086;28;20170;-73
2021/09/05 10:39:36;;;;;;;0.70;0.47;;;28.70;98.50;;;;;;5112140;28;20170;-74
2021/09/05 10:42:21;;;;;;;0.82;0.35;;;28.10;98.30;;;;;;5112637;28;20165;-72
2021/09/05 10:45:06;;;;;;;0.35;0.28;;;28.50;99.90;;;;;;5125062;28;20223;-72
2021/09/05 10:47:45;;;;;;;0.85;0.73;;;29.00;96.30;;;;;;5112439;28;20228;-73
2021/09/05 10:50:37;;;;;;;1.35;0.93;;;28.90;97.10;;;;;;5133253;27;20158;-72
2021/09/05 10:53:33;;;;;;;0.35;0.35;;;27.30;98.70;;;;;;5126809;28;20217;-71
2021/09/05 10:56:36;;;;;;;1.00;0.90;;;27.30;99.70;;;;;;5108398;28;20214;-72
2021/09/05 10:59:16;;;;;;;0.52;0.52;;;28.40;97.80;;;;;;5102952;28;20221;-72
2021/09/05 11:01:48;;;;;;;0.47;0.47;;;29.70;98.60;;;;;;5092220;28;20189;-72
2021/09/05 11:04:14;;;;;;;0.90;0.90;;;30.30;95.00;;;;;;5091106;28;20211;-72
2021/09/05 11:06:56;;;;;;;0.73;0.70;;;30.00;96.70;;;;;;5115295;28;20304;-73
2021/09/05 11:09:24;;;;;;;0.85;0.85;;;29.50;96.00;;;;;;5130667;28;20151;-73
2021/09/05 11:11:59;;;;;;;1.52;1.42;;;29.80;95.30;;;;;;5111648;28;20230;-72
2021/09/05 11:14:49;;;;;;;0.50;0.50;;;31.10;95.80;;;;;;5109541;28;20157;-72
2021/09/05 11:17:24;;;;;;;0.85;0.68;;;31.00;95.90;;;;;;5080032;28;20186;-73
2021/09/05 11:19:52;;;;;;;0.98;0.63;;;30.30;97.60;;;;;;5109578;28;20154;-72
2021/09/05 11:22:21;;;;;;;0.45;0.38;;;30.70;95.70;;;;;;5091683;28;20226;-72
2021/09/05 11:25:04;;;;;;;0.30;0.30;;;31.30;95.00;;;;;;5090825;28;20182;-72
2021/09/05 11:27:30;;;;;;;0.45;0.45;;;30.80;95.70;;;;;;5108667;28;20203;-72
2021/09/05 11:30:05;;;;;;;1.27;1.00;;;31.30;96.20;;;;;;5127882;28;20549;-72
2021/09/05 11:32:31;;;;;;;0.40;0.40;;;31.00;93.10;;;;;;5129815;28;20197;-72
2021/09/05 11:34:57;;;;;;;0.57;0.45;;;30.80;94.10;;;;;;5111368;28;20162;-71
2021/09/05 11:37:31;;;;;;;0.63;0.63;;;29.00;95.40;;;;;;5124338;28;20235;-72
2021/09/05 11:40:07;;;;;;;0.98;0.68;;;29.90;95.50;;;;;;5129087;28;20166;-72
2021/09/05 11:42:34;;;;;;;1.55;0.93;;;29.70;95.60;;;;;;5111325;28;20180;-72
2021/09/05 11:45:06;;;;;;;0.03;0.03;;;30.00;97.40;;;;;;5129935;28;20215;-72
2021/09/05 11:47:33;;;;;;;1.27;0.68;;;30.60;94.70;;;;;;5111190;28;20189;-71
2021/09/05 11:50:01;;;;;;;1.08;1.02;;;29.80;94.30;;;;;;5130046;28;20190;-71
2021/09/05 11:52:33;;;;;;;1.05;0.73;;;30.60;94.80;;;;;;5127323;28;20153;-72
2021/09/05 11:55:02;;;;;;;0.85;0.85;;;31.40;93.50;;;;;;5060077;28;20183;-72
2021/09/05 11:57:28;;;;;;;6.38;0.77;;;30.60;94.60;;;;;;5077909;28;20175;-72
2021/09/05 11:59:55;;;;;;;0.80;0.80;;;29.60;94.20;;;;;;5107361;28;20214;-72
2021/09/05 12:02:33;;;;;;;0.55;0.55;;;27.30;97.80;;;;;;5109010;28;20238;-72
2021/09/05 12:04:59;;;;;;;0.50;0.50;;;27.40;96.90;;;;;;5109226;28;20253;-72
2021/09/05 12:07:28;;;;;;;0.90;0.90;;;26.90;98.70;;;;;;5077453;28;20191;-72
2021/09/05 12:10:15;;;;;;;0.75;0.75;;;25.70;99.30;;;;;;5089253;28;20187;-72
2021/09/05 12:12:42;;;;;;;1.08;0.60;;;24.40;99.90;;;;;;5089114;28;20191;-71
2021/09/05 12:15:16;;;;;;;0.52;0.52;;;24.50;99.90;;;;;;5092537;28;20190;-72
2021/09/05 12:17:48;;;;;;;0.68;0.65;;;24.70;99.90;;;;;;5087609;28;20176;-72
2021/09/05 12:20:15;;;;;;;3.70;0.32;;;24.70;99.90;;;;;;5088468;28;20164;-72
2021/09/05 12:22:51;;;;;;;0.30;0.30;;;25.00;99.90;;;;;;5088645;28;20163;-72
2021/09/05 12:25:23;;;;;;;0.95;0.95;;;24.80;99.90;;;;;;5094581;28;20202;-72
2021/09/05 12:28:08;;;;;;;0.45;0.45;;;24.60;99.90;;;;;;5089760;28;20194;-72
2021/09/05 12:30:37;;;;;;;0.77;0.77;;;24.50;99.90;;;;;;5107262;28;20202;-71
2021/09/05 12:33:04;;;;;;;1.05;1.05;;;24.60;99.90;;;;;;5090450;28;20159;-72
2021/09/05 12:35:30;;;;;;;0.88;0.70;;;24.70;99.90;;;;;;5108498;28;20198;-71
2021/09/05 12:38:03;;;;;;;0.20;0.20;;;24.40;99.90;;;;;;5077447;28;20163;-72
2021/09/05 12:40:37;;;;;;;0.45;0.45;;;23.80;99.90;;;;;;5079943;28;20212;-71
2021/09/05 12:43:03;;;;;;;1.27;0.75;;;23.80;99.90;;;;;;5101297;28;20167;-72
2021/09/05 12:45:29;;;;;;;0.68;0.68;;;24.00;99.90;;;;;;5088217;28;20163;-71
2021/09/05 12:48:19;;;;;;;0.28;0.28;;;24.30;99.90;;;;;;5088346;28;20167;-71
2021/09/05 12:50:46;;;;;;;0.70;0.70;;;24.50;99.90;;;;;;5087384;28;20210;-72
2021/09/05 12:53:15;;;;;;;0.47;0.47;;;24.40;99.30;;;;;;5094127;28;20288;-71